sensor_id;sensor_type;location;lat;lon;timestamp;P1;durP1;ratioP1;P2;durP2;ratioP2
51995;SDS011;38010;53.264;6.592;2022-12-18T00:01:00;7.75;;;5.72;;
51995;SDS011;38010;53.264;6.592;2022-12-18T00:03:31;7.30;;;5.85;;
51995;SDS011;38010;53.264;6.592;2022-12-18T00:05:58;6.93;;;5.20;;
51995;SDS011;38010;53.264;6.592;2022-12-18T00:08:24;7.22;;;6.00;;
51995;SDS011;38010;53.264;6.592;2022-12-18T00:10:49;8.80;;;5.95;;
51995;SDS011;38010;53.264;6.592;2022-12-18T00:13:16;7.25;;;5.53;;
51995;SDS011;38010;53.264;6.592;2022-12-18T00:15:41;6.65;;;5.50;;
51995;SDS011;38010;53.264;6.592;2022-12-18T00:18:07;7.28;;;5.72;;
51995;SDS011;38010;53.264;6.592;2022-12-18T00:20:36;7.13;;;5.90;;
51995;SDS011;38010;53.264;6.592;2022-12-18T00:23:04;7.68;;;6.00;;
51995;SDS011;38010;53.264;6.592;2022-12-18T00:25:34;7.57;;;5.90;;
51995;SDS011;38010;53.264;6.592;2022-12-18T00:28:02;8.07;;;5.97;;
51995;SDS011;38010;53.264;6.592;2022-12-18T00:30:29;7.07;;;5.60;;
51995;SDS011;38010;53.264;6.592;2022-12-18T00:32:55;6.47;;;5.35;;
51995;SDS011;38010;53.264;6.592;2022-12-18T00:35:22;7.22;;;5.72;;
51995;SDS011;38010;53.264;6.592;2022-12-18T00:37:47;6.40;;;5.40;;
51995;SDS011;38010;53.264;6.592;2022-12-18T00:40:13;7.22;;;5.70;;
51995;SDS011;38010;53.264;6.592;2022-12-18T00:42:39;7.43;;;5.90;;
51995;SDS011;38010;53.264;6.592;2022-12-18T00:45:26;7.55;;;5.55;;
51995;SDS011;38010;53.264;6.592;2022-12-18T00:47:55;7.05;;;5.72;;
51995;SDS011;38010;53.264;6.592;2022-12-18T00:50:22;7.70;;;6.63;;
51995;SDS011;38010;53.264;6.592;2022-12-18T00:52:49;8.40;;;6.72;;
51995;SDS011;38010;53.264;6.592;2022-12-18T00:55:16;8.77;;;6.60;;
51995;SDS011;38010;53.264;6.592;2022-12-18T00:57:42;8.50;;;6.07;;
51995;SDS011;38010;53.264;6.592;2022-12-18T01:00:09;7.43;;;5.80;;
51995;SDS011;38010;53.264;6.592;2022-12-18T01:02:37;9.30;;;6.40;;
51995;SDS011;38010;53.264;6.592;2022-12-18T01:05:03;10.27;;;6.38;;
51995;SDS011;38010;53.264;6.592;2022-12-18T01:07:29;9.23;;;6.25;;
51995;SDS011;38010;53.264;6.592;2022-12-18T01:09:55;8.32;;;5.97;;
51995;SDS011;38010;53.264;6.592;2022-12-18T01:12:20;8.15;;;6.40;;
51995;SDS011;38010;53.264;6.592;2022-12-18T01:14:46;8.43;;;6.50;;
51995;SDS011;38010;53.264;6.592;2022-12-18T01:17:12;9.23;;;6.90;;
51995;SDS011;38010;53.264;6.592;2022-12-18T01:19:37;8.07;;;6.35;;
51995;SDS011;38010;53.264;6.592;2022-12-18T01:22:03;7.93;;;6.00;;
51995;SDS011;38010;53.264;6.592;2022-12-18T01:24:29;9.57;;;7.93;;
51995;SDS011;38010;53.264;6.592;2022-12-18T01:26:54;9.63;;;6.88;;
51995;SDS011;38010;53.264;6.592;2022-12-18T01:29:22;8.10;;;6.57;;
51995;SDS011;38010;53.264;6.592;2022-12-18T01:31:48;8.48;;;7.00;;
51995;SDS011;38010;53.264;6.592;2022-12-18T01:34:14;8.93;;;6.85;;
51995;SDS011;38010;53.264;6.592;2022-12-18T01:36:39;8.38;;;6.57;;
51995;SDS011;38010;53.264;6.592;2022-12-18T01:39:06;7.97;;;6.72;;
51995;SDS011;38010;53.264;6.592;2022-12-18T01:41:35;8.73;;;7.05;;
51995;SDS011;38010;53.264;6.592;2022-12-18T01:49:54;8.55;;;6.95;;
51995;SDS011;38010;53.264;6.592;2022-12-18T01:52:21;8.02;;;6.40;;
51995;SDS011;38010;53.264;6.592;2022-12-18T01:54:50;8.65;;;7.25;;
51995;SDS011;38010;53.264;6.592;2022-12-18T01:57:17;8.13;;;6.65;;
51995;SDS011;38010;53.264;6.592;2022-12-18T01:59:43;8.05;;;6.72;;
51995;SDS011;38010;53.264;6.592;2022-12-18T02:02:12;8.90;;;7.07;;
51995;SDS011;38010;53.264;6.592;2022-12-18T02:04:38;8.85;;;7.07;;
51995;SDS011;38010;53.264;6.592;2022-12-18T02:07:07;8.80;;;7.03;;
51995;SDS011;38010;53.264;6.592;2022-12-18T02:09:49;9.50;;;7.70;;
51995;SDS011;38010;53.264;6.592;2022-12-18T02:12:49;9.15;;;6.93;;
51995;SDS011;38010;53.264;6.592;2022-12-18T02:18:20;8.25;;;6.95;;
51995;SDS011;38010;53.264;6.592;2022-12-18T02:20:59;8.38;;;6.82;;
51995;SDS011;38010;53.264;6.592;2022-12-18T02:23:36;8.90;;;6.80;;
51995;SDS011;38010;53.264;6.592;2022-12-18T02:26:16;8.48;;;6.63;;
51995;SDS011;38010;53.264;6.592;2022-12-18T02:29:00;8.23;;;6.43;;
51995;SDS011;38010;53.264;6.592;2022-12-18T02:31:31;9.60;;;6.72;;
51995;SDS011;38010;53.264;6.592;2022-12-18T02:34:04;8.57;;;6.60;;
51995;SDS011;38010;53.264;6.592;2022-12-18T02:36:31;7.53;;;6.40;;
51995;SDS011;38010;53.264;6.592;2022-12-18T02:38:58;8.38;;;6.50;;
51995;SDS011;38010;53.264;6.592;2022-12-18T02:41:26;8.45;;;6.53;;
51995;SDS011;38010;53.264;6.592;2022-12-18T02:43:53;9.02;;;6.45;;
51995;SDS011;38010;53.264;6.592;2022-12-18T02:51:52;8.70;;;6.53;;
51995;SDS011;38010;53.264;6.592;2022-12-18T02:57:05;8.63;;;6.55;;
51995;SDS011;38010;53.264;6.592;2022-12-18T03:02:39;8.45;;;6.60;;
51995;SDS011;38010;53.264;6.592;2022-12-18T03:05:13;8.18;;;6.22;;
51995;SDS011;38010;53.264;6.592;2022-12-18T03:08:02;9.05;;;6.78;;
51995;SDS011;38010;53.264;6.592;2022-12-18T03:10:36;9.50;;;6.68;;
51995;SDS011;38010;53.264;6.592;2022-12-18T03:13:08;8.40;;;6.33;;
51995;SDS011;38010;53.264;6.592;2022-12-18T03:15:38;8.55;;;6.50;;
51995;SDS011;38010;53.264;6.592;2022-12-18T03:19:01;9.70;;;6.90;;
51995;SDS011;38010;53.264;6.592;2022-12-18T03:21:15;8.18;;;6.25;;
51995;SDS011;38010;53.264;6.592;2022-12-18T03:23:44;8.65;;;6.53;;
51995;SDS011;38010;53.264;6.592;2022-12-18T03:26:19;7.70;;;6.20;;
51995;SDS011;38010;53.264;6.592;2022-12-18T03:28:49;9.70;;;6.93;;
51995;SDS011;38010;53.264;6.592;2022-12-18T03:31:17;8.60;;;6.43;;
51995;SDS011;38010;53.264;6.592;2022-12-18T03:33:51;7.90;;;6.70;;
51995;SDS011;38010;53.264;6.592;2022-12-18T03:36:24;9.05;;;6.78;;
51995;SDS011;38010;53.264;6.592;2022-12-18T03:38:50;9.45;;;6.53;;
51995;SDS011;38010;53.264;6.592;2022-12-18T03:44:03;9.20;;;7.38;;
51995;SDS011;38010;53.264;6.592;2022-12-18T03:49:29;8.52;;;7.00;;
51995;SDS011;38010;53.264;6.592;2022-12-18T03:52:17;8.98;;;6.78;;
51995;SDS011;38010;53.264;6.592;2022-12-18T03:54:53;8.35;;;5.80;;
51995;SDS011;38010;53.264;6.592;2022-12-18T03:57:23;8.45;;;6.53;;
51995;SDS011;38010;53.264;6.592;2022-12-18T03:59:54;8.00;;;6.40;;
51995;SDS011;38010;53.264;6.592;2022-12-18T04:02:24;7.47;;;5.93;;
51995;SDS011;38010;53.264;6.592;2022-12-18T04:04:53;9.63;;;7.05;;
51995;SDS011;38010;53.264;6.592;2022-12-18T04:07:24;8.77;;;6.47;;
51995;SDS011;38010;53.264;6.592;2022-12-18T04:09:50;9.55;;;7.00;;
51995;SDS011;38010;53.264;6.592;2022-12-18T04:12:20;9.77;;;7.15;;
51995;SDS011;38010;53.264;6.592;2022-12-18T04:14:46;8.90;;;7.20;;
51995;SDS011;38010;53.264;6.592;2022-12-18T04:17:11;9.10;;;6.85;;
51995;SDS011;38010;53.264;6.592;2022-12-18T04:19:37;10.30;;;7.35;;
51995;SDS011;38010;53.264;6.592;2022-12-18T04:22:03;9.65;;;6.93;;
51995;SDS011;38010;53.264;6.592;2022-12-18T04:24:28;9.95;;;7.43;;
51995;SDS011;38010;53.264;6.592;2022-12-18T04:26:54;8.55;;;6.47;;
51995;SDS011;38010;53.264;6.592;2022-12-18T04:29:20;9.77;;;7.45;;
51995;SDS011;38010;53.264;6.592;2022-12-18T04:31:45;9.40;;;7.25;;
51995;SDS011;38010;53.264;6.592;2022-12-18T04:34:11;9.80;;;7.22;;
51995;SDS011;38010;53.264;6.592;2022-12-18T04:36:37;10.20;;;7.25;;
51995;SDS011;38010;53.264;6.592;2022-12-18T04:39:02;9.48;;;7.25;;
51995;SDS011;38010;53.264;6.592;2022-12-18T04:41:28;9.35;;;7.22;;
51995;SDS011;38010;53.264;6.592;2022-12-18T04:43:54;8.25;;;6.43;;
51995;SDS011;38010;53.264;6.592;2022-12-18T04:46:19;8.00;;;6.60;;
51995;SDS011;38010;53.264;6.592;2022-12-18T04:48:45;10.60;;;7.88;;
51995;SDS011;38010;53.264;6.592;2022-12-18T04:51:11;9.13;;;7.03;;
51995;SDS011;38010;53.264;6.592;2022-12-18T04:53:37;9.88;;;7.53;;
51995;SDS011;38010;53.264;6.592;2022-12-18T04:56:07;9.23;;;7.32;;
51995;SDS011;38010;53.264;6.592;2022-12-18T04:58:35;9.35;;;7.35;;
51995;SDS011;38010;53.264;6.592;2022-12-18T05:01:01;9.70;;;7.07;;
51995;SDS011;38010;53.264;6.592;2022-12-18T05:03:28;9.30;;;7.20;;
51995;SDS011;38010;53.264;6.592;2022-12-18T05:05:54;9.65;;;7.65;;
51995;SDS011;38010;53.264;6.592;2022-12-18T05:08:20;9.32;;;7.00;;
51995;SDS011;38010;53.264;6.592;2022-12-18T05:10:45;9.98;;;7.72;;
51995;SDS011;38010;53.264;6.592;2022-12-18T05:13:11;10.15;;;7.80;;
51995;SDS011;38010;53.264;6.592;2022-12-18T05:15:37;10.00;;;7.88;;
51995;SDS011;38010;53.264;6.592;2022-12-18T05:18:02;9.27;;;6.70;;
51995;SDS011;38010;53.264;6.592;2022-12-18T05:20:29;10.52;;;7.60;;
51995;SDS011;38010;53.264;6.592;2022-12-18T05:22:55;9.88;;;6.72;;
51995;SDS011;38010;53.264;6.592;2022-12-18T05:25:21;9.70;;;8.20;;
51995;SDS011;38010;53.264;6.592;2022-12-18T05:27:47;10.63;;;7.28;;
51995;SDS011;38010;53.264;6.592;2022-12-18T05:30:13;8.93;;;7.22;;
51995;SDS011;38010;53.264;6.592;2022-12-18T05:32:39;10.88;;;7.57;;
51995;SDS011;38010;53.264;6.592;2022-12-18T05:35:09;10.13;;;7.65;;
51995;SDS011;38010;53.264;6.592;2022-12-18T05:37:35;9.02;;;7.40;;
51995;SDS011;38010;53.264;6.592;2022-12-18T05:40:03;9.88;;;7.30;;
51995;SDS011;38010;53.264;6.592;2022-12-18T05:42:29;10.07;;;7.45;;
51995;SDS011;38010;53.264;6.592;2022-12-18T05:44:55;9.25;;;7.22;;
51995;SDS011;38010;53.264;6.592;2022-12-18T05:47:21;10.10;;;7.20;;
51995;SDS011;38010;53.264;6.592;2022-12-18T05:49:47;9.95;;;7.78;;
51995;SDS011;38010;53.264;6.592;2022-12-18T05:52:13;9.88;;;7.35;;
51995;SDS011;38010;53.264;6.592;2022-12-18T05:54:38;9.45;;;7.22;;
51995;SDS011;38010;53.264;6.592;2022-12-18T05:57:04;10.52;;;7.70;;
51995;SDS011;38010;53.264;6.592;2022-12-18T05:59:30;10.68;;;7.95;;
51995;SDS011;38010;53.264;6.592;2022-12-18T06:01:56;9.43;;;7.07;;
51995;SDS011;38010;53.264;6.592;2022-12-18T06:04:21;10.20;;;7.47;;
51995;SDS011;38010;53.264;6.592;2022-12-18T06:06:47;9.75;;;7.63;;
51995;SDS011;38010;53.264;6.592;2022-12-18T06:09:12;10.00;;;8.00;;
51995;SDS011;38010;53.264;6.592;2022-12-18T06:11:38;9.60;;;7.10;;
51995;SDS011;38010;53.264;6.592;2022-12-18T06:14:04;10.18;;;7.85;;
51995;SDS011;38010;53.264;6.592;2022-12-18T06:16:31;10.00;;;7.47;;
51995;SDS011;38010;53.264;6.592;2022-12-18T06:19:00;10.95;;;7.40;;
51995;SDS011;38010;53.264;6.592;2022-12-18T06:21:27;10.65;;;7.30;;
51995;SDS011;38010;53.264;6.592;2022-12-18T06:23:54;9.40;;;7.45;;
51995;SDS011;38010;53.264;6.592;2022-12-18T06:26:20;10.90;;;7.65;;
51995;SDS011;38010;53.264;6.592;2022-12-18T06:28:45;9.43;;;7.05;;
51995;SDS011;38010;53.264;6.592;2022-12-18T06:31:11;9.27;;;7.05;;
51995;SDS011;38010;53.264;6.592;2022-12-18T06:33:37;10.50;;;7.35;;
51995;SDS011;38010;53.264;6.592;2022-12-18T06:36:05;9.63;;;7.22;;
51995;SDS011;38010;53.264;6.592;2022-12-18T06:38:33;9.35;;;7.07;;
51995;SDS011;38010;53.264;6.592;2022-12-18T06:41:00;9.13;;;7.43;;
51995;SDS011;38010;53.264;6.592;2022-12-18T06:43:26;9.57;;;7.10;;
51995;SDS011;38010;53.264;6.592;2022-12-18T06:45:57;10.23;;;7.47;;
51995;SDS011;38010;53.264;6.592;2022-12-18T06:48:25;9.93;;;7.15;;
51995;SDS011;38010;53.264;6.592;2022-12-18T06:50:51;10.75;;;8.00;;
51995;SDS011;38010;53.264;6.592;2022-12-18T06:53:16;10.15;;;7.25;;
51995;SDS011;38010;53.264;6.592;2022-12-18T06:55:42;10.50;;;7.03;;
51995;SDS011;38010;53.264;6.592;2022-12-18T06:58:08;9.40;;;7.03;;
51995;SDS011;38010;53.264;6.592;2022-12-18T07:00:33;8.07;;;6.50;;
51995;SDS011;38010;53.264;6.592;2022-12-18T07:02:59;10.27;;;7.45;;
51995;SDS011;38010;53.264;6.592;2022-12-18T07:05:25;9.65;;;6.85;;
51995;SDS011;38010;53.264;6.592;2022-12-18T07:07:51;8.43;;;6.90;;
51995;SDS011;38010;53.264;6.592;2022-12-18T07:10:17;8.70;;;6.68;;
51995;SDS011;38010;53.264;6.592;2022-12-18T07:12:43;9.88;;;6.45;;
51995;SDS011;38010;53.264;6.592;2022-12-18T07:15:08;7.45;;;5.82;;
51995;SDS011;38010;53.264;6.592;2022-12-18T07:17:34;9.75;;;6.63;;
51995;SDS011;38010;53.264;6.592;2022-12-18T07:23:01;9.55;;;6.72;;
51995;SDS011;38010;53.264;6.592;2022-12-18T07:25:27;8.38;;;6.07;;
51995;SDS011;38010;53.264;6.592;2022-12-18T07:27:53;8.90;;;6.43;;
51995;SDS011;38010;53.264;6.592;2022-12-18T07:30:19;9.15;;;6.63;;
51995;SDS011;38010;53.264;6.592;2022-12-18T07:32:45;9.50;;;6.78;;
51995;SDS011;38010;53.264;6.592;2022-12-18T07:35:10;7.40;;;5.90;;
51995;SDS011;38010;53.264;6.592;2022-12-18T07:37:36;8.45;;;6.15;;
51995;SDS011;38010;53.264;6.592;2022-12-18T07:40:02;8.98;;;6.53;;
51995;SDS011;38010;53.264;6.592;2022-12-18T07:42:28;7.63;;;5.40;;
51995;SDS011;38010;53.264;6.592;2022-12-18T07:44:57;8.02;;;6.47;;
51995;SDS011;38010;53.264;6.592;2022-12-18T07:47:24;8.20;;;5.70;;
51995;SDS011;38010;53.264;6.592;2022-12-18T07:49:49;7.45;;;5.45;;
51995;SDS011;38010;53.264;6.592;2022-12-18T07:52:15;7.70;;;5.50;;
51995;SDS011;38010;53.264;6.592;2022-12-18T07:54:41;8.30;;;6.38;;
51995;SDS011;38010;53.264;6.592;2022-12-18T07:57:07;7.13;;;5.57;;
51995;SDS011;38010;53.264;6.592;2022-12-18T07:59:33;7.57;;;5.55;;
51995;SDS011;38010;53.264;6.592;2022-12-18T08:01:58;7.25;;;5.60;;
51995;SDS011;38010;53.264;6.592;2022-12-18T08:04:24;7.07;;;5.13;;
51995;SDS011;38010;53.264;6.592;2022-12-18T08:06:50;6.45;;;5.10;;
51995;SDS011;38010;53.264;6.592;2022-12-18T08:09:16;7.28;;;5.45;;
51995;SDS011;38010;53.264;6.592;2022-12-18T08:11:42;7.18;;;5.32;;
51995;SDS011;38010;53.264;6.592;2022-12-18T08:14:08;7.10;;;5.47;;
51995;SDS011;38010;53.264;6.592;2022-12-18T08:16:34;7.68;;;5.30;;
51995;SDS011;38010;53.264;6.592;2022-12-18T08:19:00;7.25;;;5.60;;
51995;SDS011;38010;53.264;6.592;2022-12-18T08:21:27;7.22;;;5.47;;
51995;SDS011;38010;53.264;6.592;2022-12-18T08:23:55;7.22;;;5.65;;
51995;SDS011;38010;53.264;6.592;2022-12-18T08:26:23;7.43;;;5.43;;
51995;SDS011;38010;53.264;6.592;2022-12-18T08:28:51;8.23;;;5.28;;
51995;SDS011;38010;53.264;6.592;2022-12-18T08:31:18;7.30;;;5.40;;
51995;SDS011;38010;53.264;6.592;2022-12-18T08:33:44;7.72;;;5.22;;
51995;SDS011;38010;53.264;6.592;2022-12-18T08:36:10;5.85;;;4.90;;
51995;SDS011;38010;53.264;6.592;2022-12-18T08:38:35;6.40;;;5.03;;
51995;SDS011;38010;53.264;6.592;2022-12-18T08:41:02;7.75;;;5.00;;
51995;SDS011;38010;53.264;6.592;2022-12-18T08:43:29;7.13;;;5.05;;
51995;SDS011;38010;53.264;6.592;2022-12-18T08:46:14;5.88;;;4.60;;
51995;SDS011;38010;53.264;6.592;2022-12-18T08:48:39;6.25;;;4.90;;
51995;SDS011;38010;53.264;6.592;2022-12-18T08:51:05;6.53;;;5.07;;
51995;SDS011;38010;53.264;6.592;2022-12-18T08:53:31;6.03;;;4.43;;
51995;SDS011;38010;53.264;6.592;2022-12-18T08:55:57;6.93;;;5.20;;
51995;SDS011;38010;53.264;6.592;2022-12-18T08:58:23;7.25;;;5.07;;
51995;SDS011;38010;53.264;6.592;2022-12-18T09:00:48;6.78;;;4.97;;
51995;SDS011;38010;53.264;6.592;2022-12-18T09:03:15;5.80;;;4.88;;
51995;SDS011;38010;53.264;6.592;2022-12-18T09:05:43;6.40;;;4.95;;
51995;SDS011;38010;53.264;6.592;2022-12-18T09:08:10;6.30;;;4.90;;
51995;SDS011;38010;53.264;6.592;2022-12-18T09:10:43;6.82;;;4.82;;
51995;SDS011;38010;53.264;6.592;2022-12-18T09:13:13;6.05;;;5.03;;
51995;SDS011;38010;53.264;6.592;2022-12-18T09:15:57;6.88;;;4.93;;
51995;SDS011;38010;53.264;6.592;2022-12-18T09:18:23;6.10;;;4.88;;
51995;SDS011;38010;53.264;6.592;2022-12-18T09:20:50;6.10;;;4.50;;
51995;SDS011;38010;53.264;6.592;2022-12-18T09:23:17;6.80;;;5.15;;
51995;SDS011;38010;53.264;6.592;2022-12-18T09:25:43;5.90;;;4.50;;
51995;SDS011;38010;53.264;6.592;2022-12-18T09:28:11;7.05;;;4.78;;
51995;SDS011;38010;53.264;6.592;2022-12-18T09:30:39;6.05;;;4.50;;
51995;SDS011;38010;53.264;6.592;2022-12-18T09:33:06;6.50;;;4.38;;
51995;SDS011;38010;53.264;6.592;2022-12-18T09:35:32;6.07;;;4.40;;
51995;SDS011;38010;53.264;6.592;2022-12-18T09:37:57;5.95;;;4.32;;
51995;SDS011;38010;53.264;6.592;2022-12-18T09:40:24;6.35;;;4.45;;
51995;SDS011;38010;53.264;6.592;2022-12-18T09:42:57;5.53;;;4.20;;
51995;SDS011;38010;53.264;6.592;2022-12-18T09:45:28;5.70;;;4.38;;
51995;SDS011;38010;53.264;6.592;2022-12-18T09:48:04;5.68;;;4.50;;
51995;SDS011;38010;53.264;6.592;2022-12-18T09:50:36;6.20;;;4.43;;
51995;SDS011;38010;53.264;6.592;2022-12-18T09:53:06;5.53;;;4.25;;
51995;SDS011;38010;53.264;6.592;2022-12-18T09:55:39;6.47;;;4.90;;
51995;SDS011;38010;53.264;6.592;2022-12-18T10:01:14;5.63;;;4.68;;
51995;SDS011;38010;53.264;6.592;2022-12-18T10:03:44;5.40;;;3.80;;
51995;SDS011;38010;53.264;6.592;2022-12-18T10:11:37;5.10;;;4.15;;
51995;SDS011;38010;53.264;6.592;2022-12-18T10:17:14;4.85;;;3.80;;
51995;SDS011;38010;53.264;6.592;2022-12-18T10:19:45;6.17;;;4.40;;
51995;SDS011;38010;53.264;6.592;2022-12-18T10:25:15;5.72;;;4.18;;
51995;SDS011;38010;53.264;6.592;2022-12-18T10:27:52;5.32;;;3.90;;
51995;SDS011;38010;53.264;6.592;2022-12-18T10:30:22;4.70;;;3.70;;
51995;SDS011;38010;53.264;6.592;2022-12-18T10:32:50;5.70;;;3.78;;
51995;SDS011;38010;53.264;6.592;2022-12-18T10:35:25;4.88;;;3.53;;
51995;SDS011;38010;53.264;6.592;2022-12-18T10:38:01;4.53;;;3.33;;
51995;SDS011;38010;53.264;6.592;2022-12-18T10:40:27;5.03;;;3.60;;
51995;SDS011;38010;53.264;6.592;2022-12-18T10:43:03;4.57;;;3.25;;
51995;SDS011;38010;53.264;6.592;2022-12-18T10:45:29;6.18;;;3.75;;
51995;SDS011;38010;53.264;6.592;2022-12-18T10:47:55;4.15;;;3.00;;
51995;SDS011;38010;53.264;6.592;2022-12-18T10:50:26;4.57;;;3.25;;
51995;SDS011;38010;53.264;6.592;2022-12-18T10:53:03;3.92;;;3.30;;
51995;SDS011;38010;53.264;6.592;2022-12-18T10:55:33;4.47;;;3.20;;
51995;SDS011;38010;53.264;6.592;2022-12-18T10:58:23;4.57;;;3.40;;
51995;SDS011;38010;53.264;6.592;2022-12-18T11:01:01;4.80;;;3.60;;
51995;SDS011;38010;53.264;6.592;2022-12-18T11:03:39;3.65;;;3.00;;
51995;SDS011;38010;53.264;6.592;2022-12-18T11:06:24;4.13;;;3.10;;
51995;SDS011;38010;53.264;6.592;2022-12-18T11:08:58;3.78;;;3.00;;
51995;SDS011;38010;53.264;6.592;2022-12-18T11:11:31;3.78;;;3.03;;
51995;SDS011;38010;53.264;6.592;2022-12-18T11:14:02;4.32;;;3.35;;
51995;SDS011;38010;53.264;6.592;2022-12-18T11:16:34;4.53;;;3.20;;
51995;SDS011;38010;53.264;6.592;2022-12-18T11:21:56;3.63;;;2.90;;
51995;SDS011;38010;53.264;6.592;2022-12-18T11:24:32;4.03;;;3.13;;
51995;SDS011;38010;53.264;6.592;2022-12-18T11:27:00;3.88;;;2.97;;
51995;SDS011;38010;53.264;6.592;2022-12-18T11:29:35;3.08;;;2.40;;
51995;SDS011;38010;53.264;6.592;2022-12-18T11:34:45;3.25;;;2.78;;
51995;SDS011;38010;53.264;6.592;2022-12-18T11:37:13;3.25;;;2.45;;
51995;SDS011;38010;53.264;6.592;2022-12-18T11:39:52;2.83;;;2.30;;
51995;SDS011;38010;53.264;6.592;2022-12-18T11:42:23;3.22;;;2.20;;
51995;SDS011;38010;53.264;6.592;2022-12-18T11:45:46;3.17;;;2.75;;
51995;SDS011;38010;53.264;6.592;2022-12-18T11:48:04;3.28;;;2.22;;
51995;SDS011;38010;53.264;6.592;2022-12-18T11:50:41;3.10;;;2.35;;
51995;SDS011;38010;53.264;6.592;2022-12-18T11:53:29;3.45;;;2.30;;
51995;SDS011;38010;53.264;6.592;2022-12-18T11:58:55;3.00;;;2.40;;
51995;SDS011;38010;53.264;6.592;2022-12-18T12:04:20;3.17;;;2.50;;
51995;SDS011;38010;53.264;6.592;2022-12-18T12:14:44;2.50;;;2.10;;
51995;SDS011;38010;53.264;6.592;2022-12-18T12:31:15;2.50;;;1.80;;
51995;SDS011;38010;53.264;6.592;2022-12-18T12:36:26;3.35;;;2.03;;
51995;SDS011;38010;53.264;6.592;2022-12-18T12:39:03;2.60;;;1.45;;
51995;SDS011;38010;53.264;6.592;2022-12-18T12:41:33;2.08;;;1.50;;
51995;SDS011;38010;53.264;6.592;2022-12-18T12:44:30;2.53;;;2.05;;
51995;SDS011;38010;53.264;6.592;2022-12-18T12:47:14;2.10;;;1.70;;
51995;SDS011;38010;53.264;6.592;2022-12-18T12:49:49;2.33;;;1.70;;
51995;SDS011;38010;53.264;6.592;2022-12-18T12:52:23;1.83;;;1.33;;
51995;SDS011;38010;53.264;6.592;2022-12-18T12:55:12;2.13;;;1.42;;
51995;SDS011;38010;53.264;6.592;2022-12-18T12:57:54;1.88;;;1.33;;
51995;SDS011;38010;53.264;6.592;2022-12-18T13:00:54;2.15;;;1.70;;
51995;SDS011;38010;53.264;6.592;2022-12-18T13:05:54;2.75;;;1.70;;
51995;SDS011;38010;53.264;6.592;2022-12-18T13:08:26;1.80;;;1.40;;
51995;SDS011;38010;53.264;6.592;2022-12-18T13:10:58;2.72;;;1.40;;
51995;SDS011;38010;53.264;6.592;2022-12-18T13:16:20;2.22;;;1.35;;
51995;SDS011;38010;53.264;6.592;2022-12-18T13:18:54;1.95;;;1.45;;
51995;SDS011;38010;53.264;6.592;2022-12-18T13:21:24;1.90;;;1.40;;
51995;SDS011;38010;53.264;6.592;2022-12-18T13:26:47;2.05;;;1.40;;
51995;SDS011;38010;53.264;6.592;2022-12-18T13:29:14;2.15;;;1.42;;
51995;SDS011;38010;53.264;6.592;2022-12-18T13:32:22;1.70;;;1.27;;
51995;SDS011;38010;53.264;6.592;2022-12-18T13:37:43;2.05;;;1.40;;
51995;SDS011;38010;53.264;6.592;2022-12-18T13:43:14;2.15;;;1.40;;
51995;SDS011;38010;53.264;6.592;2022-12-18T13:48:48;1.60;;;1.27;;
51995;SDS011;38010;53.264;6.592;2022-12-18T13:51:20;2.38;;;1.30;;
51995;SDS011;38010;53.264;6.592;2022-12-18T13:53:54;1.77;;;1.35;;
51995;SDS011;38010;53.264;6.592;2022-12-18T13:56:25;1.73;;;1.30;;
51995;SDS011;38010;53.264;6.592;2022-12-18T13:59:06;2.20;;;1.40;;
51995;SDS011;38010;53.264;6.592;2022-12-18T14:04:33;1.50;;;1.05;;
51995;SDS011;38010;53.264;6.592;2022-12-18T14:07:14;1.95;;;1.50;;
51995;SDS011;38010;53.264;6.592;2022-12-18T14:09:44;1.73;;;1.20;;
51995;SDS011;38010;53.264;6.592;2022-12-18T14:12:18;1.25;;;1.00;;
51995;SDS011;38010;53.264;6.592;2022-12-18T14:17:59;1.42;;;1.20;;
51995;SDS011;38010;53.264;6.592;2022-12-18T14:20:28;1.05;;;0.98;;
51995;SDS011;38010;53.264;6.592;2022-12-18T14:22:56;2.75;;;1.40;;
51995;SDS011;38010;53.264;6.592;2022-12-18T14:25:24;1.23;;;1.00;;
51995;SDS011;38010;53.264;6.592;2022-12-18T14:28:03;1.35;;;1.08;;
51995;SDS011;38010;53.264;6.592;2022-12-18T14:30:40;1.30;;;1.13;;
51995;SDS011;38010;53.264;6.592;2022-12-18T14:33:10;2.53;;;1.30;;
51995;SDS011;38010;53.264;6.592;2022-12-18T14:35:39;1.23;;;1.13;;
51995;SDS011;38010;53.264;6.592;2022-12-18T14:38:25;2.42;;;1.25;;
51995;SDS011;38010;53.264;6.592;2022-12-18T14:40:59;1.75;;;1.05;;
51995;SDS011;38010;53.264;6.592;2022-12-18T14:43:43;1.60;;;1.00;;
51995;SDS011;38010;53.264;6.592;2022-12-18T14:49:24;1.40;;;1.10;;
51995;SDS011;38010;53.264;6.592;2022-12-18T14:51:55;1.63;;;1.30;;
51995;SDS011;38010;53.264;6.592;2022-12-18T14:54:25;1.50;;;1.02;;
51995;SDS011;38010;53.264;6.592;2022-12-18T14:57:02;2.13;;;1.00;;
51995;SDS011;38010;53.264;6.592;2022-12-18T14:59:41;1.60;;;1.17;;
51995;SDS011;38010;53.264;6.592;2022-12-18T15:02:15;1.15;;;1.00;;
51995;SDS011;38010;53.264;6.592;2022-12-18T15:05:14;1.77;;;1.10;;
51995;SDS011;38010;53.264;6.592;2022-12-18T15:07:45;1.70;;;1.30;;
51995;SDS011;38010;53.264;6.592;2022-12-18T15:10:14;1.10;;;1.00;;
51995;SDS011;38010;53.264;6.592;2022-12-18T15:20:39;1.20;;;1.10;;
51995;SDS011;38010;53.264;6.592;2022-12-18T15:23:20;1.38;;;1.13;;
51995;SDS011;38010;53.264;6.592;2022-12-18T15:25:49;1.38;;;0.95;;
51995;SDS011;38010;53.264;6.592;2022-12-18T15:31:17;1.52;;;1.00;;
51995;SDS011;38010;53.264;6.592;2022-12-18T15:33:45;1.52;;;1.20;;
51995;SDS011;38010;53.264;6.592;2022-12-18T15:36:28;1.42;;;1.10;;
51995;SDS011;38010;53.264;6.592;2022-12-18T15:38:56;1.50;;;1.08;;
51995;SDS011;38010;53.264;6.592;2022-12-18T15:41:22;1.50;;;1.10;;
51995;SDS011;38010;53.264;6.592;2022-12-18T15:43:49;1.63;;;1.10;;
51995;SDS011;38010;53.264;6.592;2022-12-18T15:46:17;1.73;;;1.30;;
51995;SDS011;38010;53.264;6.592;2022-12-18T15:48:50;1.70;;;1.08;;
51995;SDS011;38010;53.264;6.592;2022-12-18T15:51:19;1.38;;;1.08;;
51995;SDS011;38010;53.264;6.592;2022-12-18T15:53:50;1.58;;;1.02;;
51995;SDS011;38010;53.264;6.592;2022-12-18T15:56:19;1.67;;;1.17;;
51995;SDS011;38010;53.264;6.592;2022-12-18T15:59:10;1.55;;;1.13;;
51995;SDS011;38010;53.264;6.592;2022-12-18T16:01:37;1.70;;;1.27;;
51995;SDS011;38010;53.264;6.592;2022-12-18T16:04:04;1.70;;;1.40;;
51995;SDS011;38010;53.264;6.592;2022-12-18T16:06:29;1.98;;;1.20;;
51995;SDS011;38010;53.264;6.592;2022-12-18T16:08:55;1.05;;;0.95;;
51995;SDS011;38010;53.264;6.592;2022-12-18T16:11:25;1.45;;;1.20;;
51995;SDS011;38010;53.264;6.592;2022-12-18T16:14:14;1.67;;;1.20;;
51995;SDS011;38010;53.264;6.592;2022-12-18T16:16:44;1.23;;;1.10;;
51995;SDS011;38010;53.264;6.592;2022-12-18T16:19:10;1.45;;;1.33;;
51995;SDS011;38010;53.264;6.592;2022-12-18T16:21:36;1.80;;;1.10;;
51995;SDS011;38010;53.264;6.592;2022-12-18T16:24:01;1.20;;;1.10;;
51995;SDS011;38010;53.264;6.592;2022-12-18T16:26:27;1.20;;;1.05;;
51995;SDS011;38010;53.264;6.592;2022-12-18T16:28:53;1.88;;;1.33;;
51995;SDS011;38010;53.264;6.592;2022-12-18T16:31:19;1.58;;;1.10;;
51995;SDS011;38010;53.264;6.592;2022-12-18T16:33:45;1.67;;;1.20;;
51995;SDS011;38010;53.264;6.592;2022-12-18T16:36:11;1.20;;;1.00;;
51995;SDS011;38010;53.264;6.592;2022-12-18T16:38:37;3.08;;;1.25;;
51995;SDS011;38010;53.264;6.592;2022-12-18T16:41:05;1.45;;;1.23;;
51995;SDS011;38010;53.264;6.592;2022-12-18T16:43:58;2.45;;;1.20;;
51995;SDS011;38010;53.264;6.592;2022-12-18T16:46:25;1.85;;;1.25;;
51995;SDS011;38010;53.264;6.592;2022-12-18T16:48:50;1.67;;;1.20;;
51995;SDS011;38010;53.264;6.592;2022-12-18T16:51:16;1.55;;;1.17;;
51995;SDS011;38010;53.264;6.592;2022-12-18T16:53:42;1.45;;;1.20;;
51995;SDS011;38010;53.264;6.592;2022-12-18T16:56:08;1.50;;;1.40;;
51995;SDS011;38010;53.264;6.592;2022-12-18T16:58:33;1.40;;;1.27;;